createdAt,value
2023-03-15T00:02:23.965Z,74.60
2023-03-15T00:04:54.943Z,74.90
2023-03-15T00:07:26.011Z,73.90
2023-03-15T00:09:54.535Z,73.00
2023-03-15T00:12:24.898Z,74.30
2023-03-15T00:14:52.415Z,74.60
2023-03-15T00:17:19.880Z,74.20
2023-03-15T00:19:48.345Z,74.60
2023-03-15T00:22:15.664Z,74.60
2023-03-15T00:24:43.865Z,75.10
2023-03-15T00:27:11.482Z,74.00
2023-03-15T00:29:39.160Z,73.40
2023-03-15T00:32:09.942Z,73.70
2023-03-15T00:34:39.881Z,74.50
2023-03-15T00:37:07.255Z,73.90
2023-03-15T00:39:37.991Z,74.50
2023-03-15T00:42:08.637Z,74.50
2023-03-15T00:44:36.262Z,73.90
2023-03-15T00:47:03.664Z,73.70
2023-03-15T00:49:32.353Z,73.70
2023-03-15T00:52:06.294Z,73.90
2023-03-15T00:54:58.859Z,74.20
2023-03-15T00:57:26.167Z,73.90
2023-03-15T00:59:53.611Z,74.10
2023-03-15T01:02:23.520Z,74.20
2023-03-15T01:04:52.465Z,72.90
2023-03-15T01:07:23.090Z,72.60
2023-03-15T01:09:50.529Z,72.90
2023-03-15T01:12:18.093Z,72.90
2023-03-15T01:14:45.368Z,72.60
2023-03-15T01:17:12.595Z,72.90
2023-03-15T01:19:39.952Z,73.20
2023-03-15T01:22:07.210Z,74.70
2023-03-15T01:24:36.051Z,73.20
2023-03-15T01:27:03.460Z,73.40
2023-03-15T01:29:30.678Z,74.10
2023-03-15T01:31:58.117Z,75.00
2023-03-15T01:34:25.327Z,75.20
2023-03-15T01:36:53.838Z,75.30
2023-03-15T01:39:26.239Z,75.30
2023-03-15T01:41:54.414Z,75.80
2023-03-15T01:44:22.428Z,75.90
2023-03-15T01:46:49.924Z,76.10
2023-03-15T01:49:25.663Z,77.10
2023-03-15T01:52:05.192Z,75.70
2023-03-15T01:55:15.409Z,76.10
2023-03-15T01:57:59.747Z,76.10
2023-03-15T02:00:30.624Z,76.30
2023-03-15T02:03:15.426Z,76.70
2023-03-15T02:05:49.254Z,76.80
2023-03-15T02:08:29.209Z,77.20
2023-03-15T02:11:00.020Z,77.40
2023-03-15T02:13:30.473Z,77.40
2023-03-15T02:16:07.089Z,77.70
2023-03-15T02:18:48.472Z,77.90
2023-03-15T02:21:24.935Z,77.90
2023-03-15T02:24:09.531Z,78.10
2023-03-15T02:27:03.753Z,78.20
2023-03-15T02:29:31.203Z,78.50
2023-03-15T02:31:58.396Z,78.80
2023-03-15T02:34:25.954Z,78.60
2023-03-15T02:36:54.179Z,78.70
2023-03-15T02:39:22.478Z,78.70
2023-03-15T02:41:59.097Z,78.80
2023-03-15T02:44:34.433Z,78.90
2023-03-15T02:47:24.292Z,79.00
2023-03-15T02:49:53.914Z,79.30
2023-03-15T02:52:22.401Z,79.10
2023-03-15T02:54:49.860Z,79.10
2023-03-15T02:57:19.387Z,79.20
2023-03-15T02:59:50.884Z,79.20
2023-03-15T03:02:18.601Z,79.30
2023-03-15T03:04:45.758Z,79.00
2023-03-15T03:07:13.165Z,79.40
2023-03-15T03:09:57.743Z,79.40
2023-03-15T03:12:26.322Z,79.60
2023-03-15T03:14:53.425Z,79.10
2023-03-15T03:17:24.078Z,79.40
2023-03-15T03:19:51.961Z,79.50
2023-03-15T03:22:26.895Z,79.20
2023-03-15T03:24:54.736Z,79.20
2023-03-15T03:27:21.739Z,79.30
2023-03-15T03:29:50.309Z,80.00
2023-03-15T03:32:17.472Z,79.30
2023-03-15T03:34:48.338Z,78.50
2023-03-15T03:37:21.124Z,79.00
2023-03-15T03:40:01.419Z,78.60
2023-03-15T03:42:29.182Z,77.90
2023-03-15T03:44:56.168Z,78.20
2023-03-15T03:47:26.837Z,78.10
2023-03-15T03:49:53.773Z,77.50
2023-03-15T03:52:21.037Z,77.30
2023-03-15T03:54:50.947Z,77.80
2023-03-15T03:57:18.005Z,77.90
2023-03-15T03:59:45.023Z,77.50
2023-03-15T04:02:12.182Z,77.30
2023-03-15T04:04:44.023Z,77.40
2023-03-15T04:07:17.252Z,77.10
2023-03-15T04:09:44.668Z,76.80
2023-03-15T04:12:11.970Z,76.80
2023-03-15T04:14:41.304Z,76.70
2023-03-15T04:17:10.485Z,76.80
2023-03-15T04:19:37.490Z,77.10
2023-03-15T04:22:06.940Z,76.90
2023-03-15T04:24:42.308Z,77.10
2023-03-15T04:27:22.073Z,77.10
2023-03-15T04:30:08.232Z,77.20
2023-03-15T04:33:03.455Z,77.00
2023-03-15T04:35:53.563Z,77.00
2023-03-15T04:38:47.059Z,77.40
2023-03-15T04:41:39.555Z,76.90
2023-03-15T04:44:27.581Z,76.40
2023-03-15T04:47:14.147Z,77.00
2023-03-15T04:49:55.050Z,76.70
2023-03-15T04:52:48.775Z,76.70
2023-03-15T04:55:26.846Z,76.90
2023-03-15T04:58:16.928Z,76.80
2023-03-15T05:01:02.814Z,77.10
2023-03-15T05:03:44.318Z,76.80
2023-03-15T05:06:28.835Z,77.20
2023-03-15T05:09:27.774Z,77.30
2023-03-15T05:12:10.351Z,77.20
2023-03-15T05:15:03.637Z,77.50
2023-03-15T05:17:49.177Z,77.50
2023-03-15T05:20:36.402Z,77.70
2023-03-15T05:23:34.000Z,77.70
2023-03-15T05:26:19.890Z,77.90
2023-03-15T05:28:46.798Z,78.30
2023-03-15T05:31:37.151Z,77.90
2023-03-15T05:34:32.388Z,79.00
2023-03-15T05:36:59.989Z,78.20
2023-03-15T05:39:37.241Z,78.80
2023-03-15T05:42:16.057Z,79.00
2023-03-15T05:45:02.091Z,79.10
2023-03-15T05:47:45.431Z,79.50
2023-03-15T05:50:35.536Z,81.00
2023-03-15T05:53:16.334Z,82.70
2023-03-15T05:55:54.843Z,82.30
2023-03-15T05:58:40.856Z,81.10
2023-03-15T06:01:07.955Z,80.40
2023-03-15T06:03:53.780Z,80.30
2023-03-15T06:06:25.866Z,81.00
2023-03-15T06:08:52.849Z,81.10
2023-03-15T06:11:19.825Z,81.00
2023-03-15T06:13:46.865Z,80.80
2023-03-15T06:16:25.260Z,81.10
2023-03-15T06:18:54.845Z,81.20
2023-03-15T06:21:21.864Z,81.50
2023-03-15T06:23:49.125Z,81.90
2023-03-15T06:26:18.802Z,81.60
2023-03-15T06:28:48.114Z,81.70
2023-03-15T06:31:16.085Z,81.80
2023-03-15T06:33:55.996Z,81.80
2023-03-15T06:36:24.935Z,82.90
2023-03-15T06:38:54.562Z,83.80
2023-03-15T06:41:21.698Z,84.70
2023-03-15T06:43:52.891Z,84.70
2023-03-15T06:46:19.879Z,83.70
2023-03-15T06:48:46.864Z,84.20
2023-03-15T06:51:15.031Z,85.60
2023-03-15T06:53:42.001Z,85.10
2023-03-15T06:56:09.014Z,84.40
2023-03-15T06:58:36.045Z,84.60
2023-03-15T07:01:03.177Z,84.20
2023-03-15T07:03:30.125Z,84.20
2023-03-15T07:05:57.056Z,84.20
2023-03-15T07:08:25.562Z,85.10
2023-03-15T07:10:52.867Z,86.40
2023-03-15T07:13:20.177Z,85.60
2023-03-15T07:15:55.606Z,85.90
2023-03-15T07:18:22.932Z,86.40
2023-03-15T07:21:00.442Z,85.90
2023-03-15T07:23:28.169Z,87.30
2023-03-15T07:25:56.030Z,86.70
2023-03-15T07:28:24.660Z,88.10
2023-03-15T07:30:55.399Z,87.70
2023-03-15T07:33:23.326Z,87.50
2023-03-15T07:35:51.279Z,87.30
2023-03-15T07:38:18.340Z,87.70
2023-03-15T07:40:45.787Z,88.10
2023-03-15T07:43:12.810Z,88.20
2023-03-15T07:45:39.817Z,88.30
2023-03-15T07:48:07.004Z,88.10
2023-03-15T07:50:34.397Z,89.00
2023-03-15T07:53:01.667Z,88.60
2023-03-15T07:55:28.668Z,88.70
2023-03-15T07:57:55.643Z,88.80
2023-03-15T08:00:23.013Z,89.10
2023-03-15T08:02:50.344Z,89.50
2023-03-15T08:05:20.706Z,88.90
2023-03-15T08:07:48.938Z,89.70
2023-03-15T08:10:16.451Z,90.30
2023-03-15T08:12:44.150Z,90.00
2023-03-15T08:15:14.914Z,90.00
2023-03-15T08:17:42.472Z,89.30
2023-03-15T08:20:11.752Z,89.70
2023-03-15T08:22:39.322Z,89.20
2023-03-15T08:25:07.290Z,89.70
2023-03-15T08:27:34.288Z,90.20
2023-03-15T08:30:01.426Z,90.00
2023-03-15T08:32:28.539Z,88.40
2023-03-15T08:34:55.565Z,89.80
2023-03-15T08:37:22.727Z,88.90
2023-03-15T08:39:49.864Z,88.00
2023-03-15T08:42:16.763Z,87.60
2023-03-15T08:44:43.696Z,87.30
2023-03-15T08:47:11.046Z,86.90
2023-03-15T08:49:38.005Z,86.80
2023-03-15T08:52:05.253Z,86.70
2023-03-15T08:54:32.221Z,85.40
2023-03-15T08:56:59.201Z,85.50
2023-03-15T08:59:31.712Z,85.20
2023-03-15T09:02:00.668Z,84.20
2023-03-15T09:04:28.043Z,84.30
2023-03-15T09:06:55.087Z,84.50
2023-03-15T09:09:22.351Z,83.50
2023-03-15T09:11:49.774Z,83.70
2023-03-15T09:14:16.733Z,83.00
2023-03-15T09:16:43.721Z,81.90
2023-03-15T09:19:10.730Z,82.20
2023-03-15T09:21:37.664Z,81.40
2023-03-15T09:24:04.911Z,80.70
2023-03-15T09:26:31.845Z,80.60
2023-03-15T09:28:58.860Z,80.80
2023-03-15T09:31:25.837Z,81.60
2023-03-15T09:33:52.891Z,81.40
2023-03-15T09:36:19.806Z,80.40
2023-03-15T09:38:47.906Z,80.30
2023-03-15T09:41:34.188Z,78.50
2023-03-15T09:44:19.346Z,79.40
2023-03-15T09:47:14.336Z,79.70
2023-03-15T09:50:01.912Z,77.80
2023-03-15T09:52:44.629Z,78.10
2023-03-15T09:55:19.195Z,78.00
2023-03-15T09:57:53.878Z,78.40
2023-03-15T10:00:26.002Z,79.20
2023-03-15T10:03:02.304Z,78.20
2023-03-15T10:05:41.963Z,77.80
2023-03-15T10:08:15.797Z,82.30
2023-03-15T10:11:05.850Z,90.90
2023-03-15T10:13:50.064Z,92.60
2023-03-15T10:16:32.317Z,92.70
2023-03-15T10:19:34.988Z,92.50
2023-03-15T10:22:11.480Z,94.20
2023-03-15T10:24:50.703Z,94.40
2023-03-15T10:27:41.631Z,94.10
2023-03-15T10:30:21.568Z,93.70
2023-03-15T10:33:26.552Z,93.50
2023-03-15T10:35:58.604Z,92.90
2023-03-15T10:38:34.685Z,92.80
2023-03-15T10:41:05.405Z,92.80
2023-03-15T10:43:38.172Z,92.30
2023-03-15T10:46:11.592Z,92.20
2023-03-15T10:48:57.967Z,92.20
2023-03-15T10:51:27.474Z,91.10
2023-03-15T10:54:06.806Z,91.00
2023-03-15T10:57:02.634Z,90.50
2023-03-15T10:59:32.917Z,90.60
2023-03-15T11:02:14.129Z,90.20
2023-03-15T11:05:01.091Z,90.10
2023-03-15T11:07:28.652Z,88.00
2023-03-15T11:10:00.713Z,85.20
2023-03-15T11:12:30.314Z,80.70
2023-03-15T11:15:14.180Z,80.40
2023-03-15T11:17:47.956Z,80.20
2023-03-15T11:20:32.529Z,75.90
2023-03-15T11:23:01.104Z,75.40
2023-03-15T11:25:33.530Z,74.80
2023-03-15T11:28:01.676Z,75.10
2023-03-15T11:30:32.274Z,75.60
2023-03-15T11:33:07.062Z,75.30
2023-03-15T11:35:48.437Z,76.30
2023-03-15T11:38:44.853Z,76.10
2023-03-15T11:41:35.286Z,75.50
2023-03-15T11:44:27.568Z,73.40
2023-03-15T11:47:16.933Z,71.40
2023-03-15T11:49:56.210Z,71.40
2023-03-15T11:52:27.454Z,70.30
2023-03-15T11:55:00.848Z,70.80
2023-03-15T11:57:44.090Z,70.90
2023-03-15T12:00:30.268Z,69.00
2023-03-15T12:03:25.322Z,67.00
2023-03-15T12:06:01.377Z,64.70
2023-03-15T12:08:40.751Z,65.60
2023-03-15T12:11:33.951Z,64.80
2023-03-15T12:14:01.155Z,65.60
2023-03-15T12:16:31.759Z,64.70
2023-03-15T12:19:09.887Z,63.80
2023-03-15T12:21:51.970Z,62.50
2023-03-15T12:24:30.332Z,62.30
2023-03-15T12:27:04.043Z,62.50
2023-03-15T12:29:34.982Z,62.00
2023-03-15T12:32:02.335Z,62.20
2023-03-15T12:34:49.775Z,62.00
2023-03-15T12:37:27.296Z,60.20
2023-03-15T12:40:02.781Z,60.40
2023-03-15T12:42:31.044Z,61.60
2023-03-15T12:45:19.587Z,61.00
2023-03-15T12:47:53.073Z,59.80
2023-03-15T12:50:45.852Z,59.90
2023-03-15T12:53:28.433Z,59.00
2023-03-15T12:56:08.028Z,59.70
2023-03-15T12:58:39.238Z,59.30
2023-03-15T13:01:08.312Z,58.10
2023-03-15T13:03:36.796Z,58.10
2023-03-15T13:06:08.992Z,58.90
2023-03-15T13:09:06.329Z,58.80
2023-03-15T13:11:41.309Z,58.90
2023-03-15T13:14:33.335Z,58.00
2023-03-15T13:17:07.103Z,58.30
2023-03-15T13:19:45.258Z,58.40
2023-03-15T13:22:59.157Z,58.50
2023-03-15T13:25:32.174Z,57.30
2023-03-15T13:28:27.605Z,57.40
2023-03-15T13:30:56.161Z,57.40
2023-03-15T13:33:49.950Z,57.60
2023-03-15T13:36:20.700Z,56.70
2023-03-15T13:38:55.891Z,57.00
2023-03-15T13:41:28.722Z,57.70
2023-03-15T13:43:58.938Z,57.70
2023-03-15T13:46:31.293Z,57.60
2023-03-15T13:49:01.312Z,57.60
2023-03-15T13:51:36.354Z,56.80
2023-03-15T13:54:09.408Z,57.30
2023-03-15T13:56:49.158Z,58.00
2023-03-15T13:59:19.628Z,58.20
2023-03-15T14:01:54.269Z,58.00
2023-03-15T14:04:25.356Z,57.00
2023-03-15T14:07:12.692Z,57.90
2023-03-15T14:09:40.201Z,58.00
2023-03-15T14:12:36.894Z,58.20
2023-03-15T14:15:04.405Z,58.00
2023-03-15T14:17:32.073Z,58.00
2023-03-15T14:20:09.252Z,57.90
2023-03-15T14:22:36.954Z,57.50
2023-03-15T14:25:19.261Z,57.90
2023-03-15T14:27:46.503Z,58.50
2023-03-15T14:30:26.244Z,58.40
2023-03-15T14:32:57.411Z,58.10
2023-03-15T14:35:37.418Z,58.50
2023-03-15T14:38:08.767Z,58.30
2023-03-15T14:40:38.853Z,57.60
2023-03-15T14:43:08.524Z,58.00
2023-03-15T14:45:39.670Z,58.00
2023-03-15T14:48:29.475Z,58.40
2023-03-15T14:50:57.102Z,58.10
2023-03-15T14:53:26.634Z,58.80
2023-03-15T14:55:53.996Z,59.60
2023-03-15T14:58:24.205Z,58.60
2023-03-15T15:00:55.095Z,58.90
2023-03-15T15:03:33.848Z,59.10
2023-03-15T15:06:02.683Z,58.80
2023-03-15T15:08:32.524Z,59.10
2023-03-15T15:11:00.279Z,58.70
2023-03-15T15:13:30.865Z,58.30
2023-03-15T15:15:58.560Z,58.20
2023-03-15T15:18:28.545Z,58.00
2023-03-15T15:20:57.614Z,58.20
2023-03-15T15:23:39.610Z,57.90
2023-03-15T15:26:23.508Z,57.70
2023-03-15T15:28:51.032Z,58.00
2023-03-15T15:31:23.512Z,57.80
2023-03-15T15:33:55.538Z,58.00
2023-03-15T15:36:32.396Z,57.90
2023-03-15T15:39:07.208Z,58.00
2023-03-15T15:41:35.865Z,58.00
2023-03-15T15:44:11.159Z,57.90
2023-03-15T15:46:38.659Z,58.10
2023-03-15T15:49:06.160Z,57.90
2023-03-15T15:51:43.141Z,57.80
2023-03-15T15:54:16.069Z,58.30
2023-03-15T15:56:55.764Z,58.20
2023-03-15T15:59:26.103Z,58.10
2023-03-15T16:02:02.554Z,58.00
2023-03-15T16:04:30.854Z,58.20
2023-03-15T16:07:01.986Z,57.80
2023-03-15T16:09:33.860Z,57.80
2023-03-15T16:12:01.649Z,58.30
2023-03-15T16:14:30.494Z,57.90
2023-03-15T16:16:58.690Z,58.20
2023-03-15T16:19:35.127Z,58.30
2023-03-15T16:22:02.724Z,58.30
2023-03-15T16:27:22.963Z,58.30
2023-03-15T16:29:53.558Z,58.60
2023-03-15T16:32:36.870Z,58.50
2023-03-15T16:35:16.082Z,58.40
2023-03-15T16:37:45.983Z,58.50
2023-03-15T16:40:27.367Z,58.60
2023-03-15T16:42:56.126Z,59.20
2023-03-15T16:45:25.270Z,59.20
2023-03-15T16:47:53.505Z,59.50
2023-03-15T16:50:21.350Z,59.70
2023-03-15T16:52:53.327Z,59.40
2023-03-15T16:55:25.998Z,59.30
2023-03-15T16:57:58.885Z,59.40
2023-03-15T17:00:30.256Z,59.70
2023-03-15T17:03:03.483Z,59.80
2023-03-15T17:05:34.192Z,59.80
2023-03-15T17:08:04.677Z,59.80
2023-03-15T17:10:33.357Z,60.10
2023-03-15T17:13:02.698Z,60.30
2023-03-15T17:15:31.726Z,60.00
2023-03-15T17:18:01.109Z,60.30
2023-03-15T17:20:30.248Z,59.90
2023-03-15T17:23:04.048Z,60.40
2023-03-15T17:25:33.629Z,60.40
2023-03-15T17:28:03.650Z,60.40
2023-03-15T17:30:35.632Z,60.70
2023-03-15T17:33:05.349Z,60.70
2023-03-15T17:35:44.599Z,61.10
2023-03-15T17:38:19.888Z,61.50
2023-03-15T17:40:51.525Z,61.40
2023-03-15T17:43:19.797Z,61.50
2023-03-15T17:45:50.547Z,61.50
2023-03-15T17:48:18.990Z,61.80
2023-03-15T17:50:47.423Z,61.60
2023-03-15T17:53:23.258Z,61.70
2023-03-15T17:55:54.361Z,61.50
2023-03-15T17:58:26.466Z,61.80
2023-03-15T18:00:57.452Z,61.80
2023-03-15T18:03:26.581Z,61.90
2023-03-15T18:05:59.323Z,62.00
2023-03-15T18:08:28.243Z,61.90
2023-03-15T18:11:01.016Z,61.90
2023-03-15T18:13:29.675Z,62.10
2023-03-15T18:15:58.273Z,62.10
2023-03-15T18:18:25.808Z,62.50
2023-03-15T18:20:54.917Z,62.70
2023-03-15T18:23:23.832Z,62.90
2023-03-15T18:25:52.445Z,64.20
2023-03-15T18:28:21.924Z,64.10
2023-03-15T18:30:50.595Z,64.20
2023-03-15T18:33:19.948Z,65.40
2023-03-15T18:35:50.246Z,64.70
2023-03-15T18:38:19.809Z,65.30
2023-03-15T18:40:48.417Z,64.70
2023-03-15T18:43:17.148Z,64.60
2023-03-15T18:45:46.894Z,64.80
2023-03-15T18:48:15.648Z,64.20
2023-03-15T18:50:44.623Z,63.90
2023-03-15T18:53:13.554Z,64.40
2023-03-15T18:55:42.813Z,64.80
2023-03-15T18:58:13.481Z,64.70
2023-03-15T19:00:43.534Z,64.60
2023-03-15T19:03:12.920Z,64.40
2023-03-15T19:05:44.368Z,64.10
2023-03-15T19:08:13.433Z,64.20
2023-03-15T19:10:42.735Z,64.70
2023-03-15T19:13:11.477Z,64.40
2023-03-15T19:15:40.777Z,64.80
2023-03-15T19:18:10.071Z,65.00
2023-03-15T19:20:38.965Z,66.50
2023-03-15T19:23:08.709Z,65.50
2023-03-15T19:25:38.025Z,64.90
2023-03-15T19:28:08.229Z,65.60
2023-03-15T19:30:39.137Z,65.50
2023-03-15T19:33:11.614Z,65.80
2023-03-15T19:35:40.298Z,65.70
2023-03-15T19:38:18.126Z,65.40
2023-03-15T19:41:00.039Z,66.00
2023-03-15T19:43:29.907Z,65.50
2023-03-15T19:46:02.202Z,66.80
2023-03-15T19:48:30.760Z,65.60
2023-03-15T19:51:01.045Z,66.10
2023-03-15T19:53:34.098Z,66.10
2023-03-15T19:56:09.261Z,65.70
2023-03-15T19:58:38.601Z,65.80
2023-03-15T20:01:10.789Z,66.80
2023-03-15T20:03:48.005Z,66.10
2023-03-15T20:06:17.088Z,66.60
2023-03-15T20:08:45.815Z,67.20
2023-03-15T20:11:20.747Z,67.10
2023-03-15T20:13:52.408Z,65.80
2023-03-15T20:16:22.451Z,65.50
2023-03-15T20:18:52.505Z,65.80
2023-03-15T20:21:21.245Z,66.30
2023-03-15T20:23:50.566Z,66.50
2023-03-15T20:26:19.889Z,66.50
2023-03-15T20:28:49.370Z,65.80
2023-03-15T20:31:20.522Z,66.90
2023-03-15T20:33:52.832Z,68.40
2023-03-15T20:36:26.042Z,71.00
2023-03-15T20:38:57.146Z,70.60
2023-03-15T20:41:27.484Z,70.20
2023-03-15T20:43:57.509Z,69.90
2023-03-15T20:46:26.395Z,71.60
2023-03-15T20:48:56.923Z,72.00
2023-03-15T20:51:26.612Z,71.40
2023-03-15T20:53:55.561Z,70.80
2023-03-15T20:56:23.634Z,70.60
2023-03-15T20:58:55.869Z,71.90
2023-03-15T21:01:24.924Z,74.80
2023-03-15T21:03:56.748Z,74.60
2023-03-15T21:06:25.457Z,74.20
2023-03-15T21:08:54.402Z,74.30
2023-03-15T21:11:23.778Z,73.70
2023-03-15T21:13:53.156Z,74.60
2023-03-15T21:16:24.420Z,73.80
2023-03-15T21:18:55.407Z,74.80
2023-03-15T21:21:24.256Z,75.00
2023-03-15T21:23:51.968Z,75.00
2023-03-15T21:26:27.816Z,76.40
2023-03-15T21:28:57.994Z,77.40
2023-03-15T21:31:26.462Z,77.60
2023-03-15T21:33:54.556Z,76.90
2023-03-15T21:36:23.087Z,77.20
2023-03-15T21:38:50.748Z,78.00
2023-03-15T21:41:18.870Z,78.80
2023-03-15T21:43:48.852Z,80.90
2023-03-15T21:46:16.969Z,79.60
2023-03-15T21:48:45.200Z,79.50
2023-03-15T21:51:14.721Z,80.50
2023-03-15T21:53:42.505Z,80.50
2023-03-15T21:56:10.158Z,79.60
2023-03-15T21:58:37.356Z,80.20
2023-03-15T22:01:08.007Z,80.80
2023-03-15T22:03:37.132Z,81.10
2023-03-15T22:06:04.528Z,81.40
2023-03-15T22:08:33.928Z,81.70
2023-03-15T22:11:01.697Z,82.70
2023-03-15T22:13:30.238Z,82.40
2023-03-15T22:15:57.891Z,81.60
2023-03-15T22:18:28.651Z,82.10
2023-03-15T22:20:56.960Z,82.40
2023-03-15T22:23:26.045Z,82.00
2023-03-15T22:25:55.964Z,82.00
2023-03-15T22:28:25.259Z,82.70
2023-03-15T22:30:53.626Z,82.90
2023-03-15T22:33:24.639Z,82.00
2023-03-15T22:35:57.062Z,81.20
2023-03-15T22:38:25.767Z,81.90
2023-03-15T22:41:02.248Z,82.40
2023-03-15T22:43:29.804Z,85.10
2023-03-15T22:45:57.210Z,86.70
2023-03-15T22:48:24.860Z,85.90
2023-03-15T22:51:06.514Z,86.10
2023-03-15T22:53:34.271Z,85.70
2023-03-15T22:56:01.993Z,84.80
2023-03-15T22:58:29.477Z,84.80
2023-03-15T23:01:03.082Z,84.80
2023-03-15T23:03:31.338Z,83.90
2023-03-15T23:05:58.641Z,88.70
2023-03-15T23:08:25.932Z,86.10
2023-03-15T23:10:53.366Z,87.70
2023-03-15T23:13:21.831Z,88.60
2023-03-15T23:15:49.569Z,89.00
2023-03-15T23:18:16.780Z,89.90
2023-03-15T23:20:44.097Z,90.40
2023-03-15T23:23:11.346Z,89.10
2023-03-15T23:25:39.592Z,87.40
2023-03-15T23:28:08.276Z,86.20
2023-03-15T23:30:36.477Z,86.10
2023-03-15T23:33:04.270Z,85.30
2023-03-15T23:35:33.086Z,88.10
2023-03-15T23:38:00.694Z,89.90
2023-03-15T23:40:30.755Z,90.20
2023-03-15T23:43:01.182Z,89.70
2023-03-15T23:45:41.557Z,88.20
2023-03-15T23:48:10.572Z,88.30
2023-03-15T23:50:38.859Z,87.50
2023-03-15T23:53:06.274Z,88.40
2023-03-15T23:55:33.713Z,88.20
